Terminal Aerodrome Forecast
Issued by NWS

Home | Current Version | Previous Version | Text Only | Print | Product List | Glossary On
Versions: 1 2 3 4 5 6 7 8 9 10 11 12 13 14 15 16 17 18 19 20 21 22 23 24 25 26 27 28
000
FTUS45 KFGZ 032300
TAFSEZ
TAF
KSEZ 032333Z 0400/0424 16008KT P6SM SCT040 BKN050 BKN080
      TEMPO 0400/0404 5SM -SHRA BKN040
     FM040430 04008KT P6SM SCT050 SCT080
     FM041800 05008KT P6SM FEW080=

USA.gov is the U.S. government's official web portal to all federal, state and local government web resources and services.